sensor_id;sensor_type;location;lat;lon;timestamp;P1;durP1;ratioP1;P2;durP2;ratioP2
22144;SDS011;11238;48.730;11.566;2024-02-26T00:02:24;8.80;;;5.88;;
22144;SDS011;11238;48.730;11.566;2024-02-26T00:04:50;13.07;;;6.38;;
22144;SDS011;11238;48.730;11.566;2024-02-26T00:07:16;11.85;;;6.45;;
22144;SDS011;11238;48.730;11.566;2024-02-26T00:09:42;14.10;;;6.72;;
22144;SDS011;11238;48.730;11.566;2024-02-26T00:12:08;11.30;;;6.30;;
22144;SDS011;11238;48.730;11.566;2024-02-26T00:14:34;12.40;;;6.13;;
22144;SDS011;11238;48.730;11.566;2024-02-26T00:16:59;14.40;;;6.43;;
22144;SDS011;11238;48.730;11.566;2024-02-26T00:19:25;13.98;;;6.55;;
22144;SDS011;11238;48.730;11.566;2024-02-26T00:21:51;13.40;;;6.82;;
22144;SDS011;11238;48.730;11.566;2024-02-26T00:24:18;11.45;;;6.72;;
22144;SDS011;11238;48.730;11.566;2024-02-26T00:26:44;11.82;;;6.45;;
22144;SDS011;11238;48.730;11.566;2024-02-26T00:29:10;12.68;;;6.90;;
22144;SDS011;11238;48.730;11.566;2024-02-26T00:31:36;12.90;;;6.47;;
22144;SDS011;11238;48.730;11.566;2024-02-26T00:34:03;12.65;;;6.13;;
22144;SDS011;11238;48.730;11.566;2024-02-26T00:36:29;12.48;;;6.22;;
22144;SDS011;11238;48.730;11.566;2024-02-26T00:38:55;9.75;;;6.10;;
22144;SDS011;11238;48.730;11.566;2024-02-26T00:41:21;10.98;;;6.60;;
22144;SDS011;11238;48.730;11.566;2024-02-26T00:43:46;12.00;;;6.55;;
22144;SDS011;11238;48.730;11.566;2024-02-26T00:46:13;11.57;;;6.70;;
22144;SDS011;11238;48.730;11.566;2024-02-26T00:48:38;14.80;;;6.97;;
22144;SDS011;11238;48.730;11.566;2024-02-26T00:51:05;10.73;;;6.28;;
22144;SDS011;11238;48.730;11.566;2024-02-26T00:53:31;12.05;;;6.38;;
22144;SDS011;11238;48.730;11.566;2024-02-26T00:55:57;12.50;;;6.53;;
22144;SDS011;11238;48.730;11.566;2024-02-26T00:58:26;13.88;;;6.90;;
22144;SDS011;11238;48.730;11.566;2024-02-26T01:00:53;15.63;;;6.68;;
22144;SDS011;11238;48.730;11.566;2024-02-26T01:03:19;11.88;;;6.85;;
22144;SDS011;11238;48.730;11.566;2024-02-26T01:05:44;13.00;;;6.68;;
22144;SDS011;11238;48.730;11.566;2024-02-26T01:08:10;14.95;;;7.38;;
22144;SDS011;11238;48.730;11.566;2024-02-26T01:10:36;17.52;;;8.25;;
22144;SDS011;11238;48.730;11.566;2024-02-26T01:13:02;14.15;;;6.90;;
22144;SDS011;11238;48.730;11.566;2024-02-26T01:15:28;12.13;;;7.10;;
22144;SDS011;11238;48.730;11.566;2024-02-26T01:17:53;12.18;;;7.18;;
22144;SDS011;11238;48.730;11.566;2024-02-26T01:20:20;13.60;;;7.32;;
22144;SDS011;11238;48.730;11.566;2024-02-26T01:22:45;13.82;;;7.15;;
22144;SDS011;11238;48.730;11.566;2024-02-26T01:25:12;12.30;;;6.75;;
22144;SDS011;11238;48.730;11.566;2024-02-26T01:27:38;13.70;;;7.30;;
22144;SDS011;11238;48.730;11.566;2024-02-26T01:30:06;17.77;;;8.27;;
22144;SDS011;11238;48.730;11.566;2024-02-26T01:32:33;16.17;;;8.35;;
22144;SDS011;11238;48.730;11.566;2024-02-26T01:34:59;15.15;;;7.85;;
22144;SDS011;11238;48.730;11.566;2024-02-26T01:37:24;16.73;;;8.73;;
22144;SDS011;11238;48.730;11.566;2024-02-26T01:39:51;16.55;;;8.23;;
22144;SDS011;11238;48.730;11.566;2024-02-26T01:42:17;14.50;;;7.65;;
22144;SDS011;11238;48.730;11.566;2024-02-26T01:44:43;18.35;;;8.50;;
22144;SDS011;11238;48.730;11.566;2024-02-26T01:47:10;15.20;;;8.07;;
22144;SDS011;11238;48.730;11.566;2024-02-26T01:49:37;19.70;;;9.07;;
22144;SDS011;11238;48.730;11.566;2024-02-26T01:52:04;15.43;;;8.63;;
22144;SDS011;11238;48.730;11.566;2024-02-26T01:54:33;18.05;;;8.85;;
22144;SDS011;11238;48.730;11.566;2024-02-26T01:57:02;19.23;;;9.23;;
22144;SDS011;11238;48.730;11.566;2024-02-26T01:59:32;17.13;;;8.23;;
22144;SDS011;11238;48.730;11.566;2024-02-26T02:02:00;18.33;;;8.95;;
22144;SDS011;11238;48.730;11.566;2024-02-26T02:04:28;18.25;;;9.73;;
22144;SDS011;11238;48.730;11.566;2024-02-26T02:06:55;19.83;;;9.05;;
22144;SDS011;11238;48.730;11.566;2024-02-26T02:09:23;22.50;;;10.38;;
22144;SDS011;11238;48.730;11.566;2024-02-26T02:11:49;21.48;;;9.70;;
22144;SDS011;11238;48.730;11.566;2024-02-26T02:14:15;17.77;;;9.23;;
22144;SDS011;11238;48.730;11.566;2024-02-26T02:16:41;18.63;;;9.63;;
22144;SDS011;11238;48.730;11.566;2024-02-26T02:19:07;20.45;;;9.32;;
22144;SDS011;11238;48.730;11.566;2024-02-26T02:21:32;22.38;;;9.90;;
22144;SDS011;11238;48.730;11.566;2024-02-26T02:23:58;18.70;;;9.15;;
22144;SDS011;11238;48.730;11.566;2024-02-26T02:26:24;20.08;;;10.57;;
22144;SDS011;11238;48.730;11.566;2024-02-26T02:28:50;20.40;;;10.20;;
22144;SDS011;11238;48.730;11.566;2024-02-26T02:31:16;22.40;;;10.55;;
22144;SDS011;11238;48.730;11.566;2024-02-26T02:33:42;21.63;;;10.38;;
22144;SDS011;11238;48.730;11.566;2024-02-26T02:36:08;24.02;;;10.05;;
22144;SDS011;11238;48.730;11.566;2024-02-26T02:38:38;19.38;;;10.40;;
22144;SDS011;11238;48.730;11.566;2024-02-26T02:41:13;17.55;;;9.68;;
22144;SDS011;11238;48.730;11.566;2024-02-26T02:43:39;20.90;;;10.30;;
22144;SDS011;11238;48.730;11.566;2024-02-26T02:46:05;21.15;;;10.55;;
22144;SDS011;11238;48.730;11.566;2024-02-26T02:48:32;22.42;;;10.35;;
22144;SDS011;11238;48.730;11.566;2024-02-26T02:50:58;22.83;;;11.02;;
22144;SDS011;11238;48.730;11.566;2024-02-26T02:53:24;23.00;;;10.30;;
22144;SDS011;11238;48.730;11.566;2024-02-26T02:55:50;24.48;;;10.82;;
22144;SDS011;11238;48.730;11.566;2024-02-26T02:58:15;23.85;;;10.75;;
22144;SDS011;11238;48.730;11.566;2024-02-26T03:00:41;24.75;;;10.98;;
22144;SDS011;11238;48.730;11.566;2024-02-26T03:03:07;26.90;;;11.98;;
22144;SDS011;11238;48.730;11.566;2024-02-26T03:05:33;26.15;;;11.63;;
22144;SDS011;11238;48.730;11.566;2024-02-26T03:07:59;21.02;;;10.50;;
22144;SDS011;11238;48.730;11.566;2024-02-26T03:10:24;26.15;;;11.57;;
22144;SDS011;11238;48.730;11.566;2024-02-26T03:12:50;22.77;;;11.45;;
22144;SDS011;11238;48.730;11.566;2024-02-26T03:15:16;24.55;;;11.55;;
22144;SDS011;11238;48.730;11.566;2024-02-26T03:17:42;26.90;;;11.05;;
22144;SDS011;11238;48.730;11.566;2024-02-26T03:20:08;24.67;;;11.32;;
22144;SDS011;11238;48.730;11.566;2024-02-26T03:22:34;28.60;;;12.38;;
22144;SDS011;11238;48.730;11.566;2024-02-26T03:25:01;25.92;;;11.57;;
22144;SDS011;11238;48.730;11.566;2024-02-26T03:27:27;27.67;;;11.98;;
22144;SDS011;11238;48.730;11.566;2024-02-26T03:29:53;28.58;;;11.95;;
22144;SDS011;11238;48.730;11.566;2024-02-26T03:32:18;26.95;;;11.98;;
22144;SDS011;11238;48.730;11.566;2024-02-26T03:34:44;26.35;;;12.05;;
22144;SDS011;11238;48.730;11.566;2024-02-26T03:37:10;26.05;;;12.05;;
22144;SDS011;11238;48.730;11.566;2024-02-26T03:39:36;24.95;;;12.07;;
22144;SDS011;11238;48.730;11.566;2024-02-26T03:42:02;27.05;;;11.95;;
22144;SDS011;11238;48.730;11.566;2024-02-26T03:44:29;25.98;;;12.07;;
22144;SDS011;11238;48.730;11.566;2024-02-26T03:46:54;26.58;;;11.48;;
22144;SDS011;11238;48.730;11.566;2024-02-26T03:49:20;25.00;;;12.68;;
22144;SDS011;11238;48.730;11.566;2024-02-26T03:51:47;24.00;;;11.57;;
22144;SDS011;11238;48.730;11.566;2024-02-26T03:54:13;23.83;;;11.90;;
22144;SDS011;11238;48.730;11.566;2024-02-26T03:56:39;26.50;;;12.35;;
22144;SDS011;11238;48.730;11.566;2024-02-26T03:59:05;26.02;;;12.65;;
22144;SDS011;11238;48.730;11.566;2024-02-26T04:01:31;24.15;;;11.00;;
22144;SDS011;11238;48.730;11.566;2024-02-26T04:03:57;32.03;;;13.23;;
22144;SDS011;11238;48.730;11.566;2024-02-26T04:06:22;27.13;;;12.48;;
22144;SDS011;11238;48.730;11.566;2024-02-26T04:08:48;27.05;;;13.15;;
22144;SDS011;11238;48.730;11.566;2024-02-26T04:11:14;26.90;;;12.93;;
22144;SDS011;11238;48.730;11.566;2024-02-26T04:13:43;26.10;;;12.43;;
22144;SDS011;11238;48.730;11.566;2024-02-26T04:16:17;26.23;;;12.68;;
22144;SDS011;11238;48.730;11.566;2024-02-26T04:18:43;27.80;;;13.48;;
22144;SDS011;11238;48.730;11.566;2024-02-26T04:21:09;29.92;;;12.60;;
22144;SDS011;11238;48.730;11.566;2024-02-26T04:23:35;30.60;;;13.25;;
22144;SDS011;11238;48.730;11.566;2024-02-26T04:26:01;27.55;;;12.43;;
22144;SDS011;11238;48.730;11.566;2024-02-26T04:28:27;26.98;;;12.88;;
22144;SDS011;11238;48.730;11.566;2024-02-26T04:30:55;29.10;;;12.57;;
22144;SDS011;11238;48.730;11.566;2024-02-26T04:33:21;25.70;;;13.40;;
22144;SDS011;11238;48.730;11.566;2024-02-26T04:35:47;28.13;;;12.82;;
22144;SDS011;11238;48.730;11.566;2024-02-26T04:38:13;27.65;;;13.07;;
22144;SDS011;11238;48.730;11.566;2024-02-26T04:40:39;23.90;;;12.45;;
22144;SDS011;11238;48.730;11.566;2024-02-26T04:43:04;28.33;;;13.13;;
22144;SDS011;11238;48.730;11.566;2024-02-26T04:45:30;25.55;;;13.30;;
22144;SDS011;11238;48.730;11.566;2024-02-26T04:47:56;27.27;;;12.90;;
22144;SDS011;11238;48.730;11.566;2024-02-26T04:50:22;26.30;;;13.20;;
22144;SDS011;11238;48.730;11.566;2024-02-26T04:52:47;22.80;;;12.32;;
22144;SDS011;11238;48.730;11.566;2024-02-26T04:55:13;27.52;;;13.15;;
22144;SDS011;11238;48.730;11.566;2024-02-26T04:57:38;27.45;;;13.10;;
22144;SDS011;11238;48.730;11.566;2024-02-26T05:00:05;23.90;;;12.52;;
22144;SDS011;11238;48.730;11.566;2024-02-26T05:02:31;28.77;;;13.88;;
22144;SDS011;11238;48.730;11.566;2024-02-26T05:04:59;23.23;;;12.25;;
22144;SDS011;11238;48.730;11.566;2024-02-26T05:07:24;27.73;;;12.95;;
22144;SDS011;11238;48.730;11.566;2024-02-26T05:09:50;26.52;;;13.27;;
22144;SDS011;11238;48.730;11.566;2024-02-26T05:12:16;29.48;;;14.18;;
22144;SDS011;11238;48.730;11.566;2024-02-26T05:14:42;26.63;;;13.80;;
22144;SDS011;11238;48.730;11.566;2024-02-26T05:17:08;27.83;;;13.98;;
22144;SDS011;11238;48.730;11.566;2024-02-26T05:19:34;31.52;;;14.85;;
22144;SDS011;11238;48.730;11.566;2024-02-26T05:22:00;27.23;;;13.30;;
22144;SDS011;11238;48.730;11.566;2024-02-26T05:24:25;26.73;;;13.73;;
22144;SDS011;11238;48.730;11.566;2024-02-26T05:26:51;26.90;;;14.07;;
22144;SDS011;11238;48.730;11.566;2024-02-26T05:29:17;28.83;;;14.00;;
22144;SDS011;11238;48.730;11.566;2024-02-26T05:31:43;29.30;;;13.52;;
22144;SDS011;11238;48.730;11.566;2024-02-26T05:34:08;31.67;;;14.73;;
22144;SDS011;11238;48.730;11.566;2024-02-26T05:36:35;29.60;;;14.77;;
22144;SDS011;11238;48.730;11.566;2024-02-26T05:39:01;24.90;;;13.55;;
22144;SDS011;11238;48.730;11.566;2024-02-26T05:41:29;33.90;;;14.98;;
22144;SDS011;11238;48.730;11.566;2024-02-26T05:43:55;28.60;;;13.63;;
22144;SDS011;11238;48.730;11.566;2024-02-26T05:46:22;29.25;;;14.45;;
22144;SDS011;11238;48.730;11.566;2024-02-26T05:48:48;26.05;;;13.32;;
22144;SDS011;11238;48.730;11.566;2024-02-26T05:51:15;29.35;;;14.20;;
22144;SDS011;11238;48.730;11.566;2024-02-26T05:53:41;26.50;;;13.73;;
22144;SDS011;11238;48.730;11.566;2024-02-26T05:56:08;28.40;;;14.25;;
22144;SDS011;11238;48.730;11.566;2024-02-26T05:58:33;28.83;;;14.32;;
22144;SDS011;11238;48.730;11.566;2024-02-26T06:00:59;32.03;;;14.23;;
22144;SDS011;11238;48.730;11.566;2024-02-26T06:03:25;29.13;;;16.08;;
22144;SDS011;11238;48.730;11.566;2024-02-26T06:05:52;32.40;;;14.77;;
22144;SDS011;11238;48.730;11.566;2024-02-26T06:08:17;35.28;;;15.20;;
22144;SDS011;11238;48.730;11.566;2024-02-26T06:10:44;26.90;;;14.18;;
22144;SDS011;11238;48.730;11.566;2024-02-26T06:13:10;33.67;;;15.38;;
22144;SDS011;11238;48.730;11.566;2024-02-26T06:15:35;29.50;;;14.73;;
22144;SDS011;11238;48.730;11.566;2024-02-26T06:18:01;28.67;;;14.65;;
22144;SDS011;11238;48.730;11.566;2024-02-26T06:20:28;32.92;;;14.73;;
22144;SDS011;11238;48.730;11.566;2024-02-26T06:22:54;30.08;;;14.88;;
22144;SDS011;11238;48.730;11.566;2024-02-26T06:25:19;32.85;;;15.43;;
22144;SDS011;11238;48.730;11.566;2024-02-26T06:27:45;31.58;;;14.73;;
22144;SDS011;11238;48.730;11.566;2024-02-26T06:30:11;27.38;;;15.05;;
22144;SDS011;11238;48.730;11.566;2024-02-26T06:32:37;29.40;;;14.35;;
22144;SDS011;11238;48.730;11.566;2024-02-26T06:35:03;26.88;;;14.18;;
22144;SDS011;11238;48.730;11.566;2024-02-26T06:37:34;23.20;;;13.30;;
22144;SDS011;11238;48.730;11.566;2024-02-26T06:40:01;29.00;;;15.48;;
22144;SDS011;11238;48.730;11.566;2024-02-26T06:42:31;28.45;;;13.73;;
22144;SDS011;11238;48.730;11.566;2024-02-26T06:44:58;29.52;;;14.32;;
22144;SDS011;11238;48.730;11.566;2024-02-26T06:47:24;28.58;;;14.75;;
22144;SDS011;11238;48.730;11.566;2024-02-26T06:49:51;33.45;;;15.20;;
22144;SDS011;11238;48.730;11.566;2024-02-26T06:52:17;33.40;;;16.55;;
22144;SDS011;11238;48.730;11.566;2024-02-26T06:54:42;33.10;;;15.18;;
22144;SDS011;11238;48.730;11.566;2024-02-26T06:57:08;32.85;;;14.70;;
22144;SDS011;11238;48.730;11.566;2024-02-26T06:59:34;31.23;;;15.32;;
22144;SDS011;11238;48.730;11.566;2024-02-26T07:02:00;32.70;;;15.35;;
22144;SDS011;11238;48.730;11.566;2024-02-26T07:04:26;29.95;;;13.60;;
22144;SDS011;11238;48.730;11.566;2024-02-26T07:06:52;32.30;;;14.48;;
22144;SDS011;11238;48.730;11.566;2024-02-26T07:09:18;26.55;;;13.82;;
22144;SDS011;11238;48.730;11.566;2024-02-26T07:11:44;26.83;;;14.38;;
22144;SDS011;11238;48.730;11.566;2024-02-26T07:14:11;29.83;;;14.57;;
22144;SDS011;11238;48.730;11.566;2024-02-26T07:16:37;30.50;;;14.57;;
22144;SDS011;11238;48.730;11.566;2024-02-26T07:19:03;27.38;;;14.75;;
22144;SDS011;11238;48.730;11.566;2024-02-26T07:21:29;27.35;;;14.00;;
22144;SDS011;11238;48.730;11.566;2024-02-26T07:23:55;28.67;;;14.30;;
22144;SDS011;11238;48.730;11.566;2024-02-26T07:26:21;30.83;;;14.85;;
22144;SDS011;11238;48.730;11.566;2024-02-26T07:28:49;25.85;;;14.30;;
22144;SDS011;11238;48.730;11.566;2024-02-26T07:31:17;27.35;;;13.82;;
22144;SDS011;11238;48.730;11.566;2024-02-26T07:33:43;28.92;;;13.80;;
22144;SDS011;11238;48.730;11.566;2024-02-26T07:36:09;31.13;;;14.90;;
22144;SDS011;11238;48.730;11.566;2024-02-26T07:38:35;26.25;;;14.25;;
22144;SDS011;11238;48.730;11.566;2024-02-26T07:41:04;26.95;;;13.82;;
22144;SDS011;11238;48.730;11.566;2024-02-26T07:43:30;25.70;;;13.57;;
22144;SDS011;11238;48.730;11.566;2024-02-26T07:45:57;26.52;;;14.43;;
22144;SDS011;11238;48.730;11.566;2024-02-26T07:48:23;23.23;;;13.38;;
22144;SDS011;11238;48.730;11.566;2024-02-26T07:50:49;26.60;;;13.68;;
22144;SDS011;11238;48.730;11.566;2024-02-26T07:53:15;26.90;;;14.07;;
22144;SDS011;11238;48.730;11.566;2024-02-26T07:55:41;23.90;;;13.10;;
22144;SDS011;11238;48.730;11.566;2024-02-26T07:58:07;25.23;;;13.02;;
22144;SDS011;11238;48.730;11.566;2024-02-26T08:00:33;26.92;;;12.75;;
22144;SDS011;11238;48.730;11.566;2024-02-26T08:02:58;30.55;;;13.48;;
22144;SDS011;11238;48.730;11.566;2024-02-26T08:05:24;25.20;;;12.95;;
22144;SDS011;11238;48.730;11.566;2024-02-26T08:07:50;25.27;;;13.82;;
22144;SDS011;11238;48.730;11.566;2024-02-26T08:10:16;23.73;;;12.63;;
22144;SDS011;11238;48.730;11.566;2024-02-26T08:12:42;23.90;;;13.00;;
22144;SDS011;11238;48.730;11.566;2024-02-26T08:15:08;24.10;;;12.80;;
22144;SDS011;11238;48.730;11.566;2024-02-26T08:17:36;22.95;;;11.63;;
22144;SDS011;11238;48.730;11.566;2024-02-26T08:20:03;21.60;;;11.05;;
22144;SDS011;11238;48.730;11.566;2024-02-26T08:22:29;24.58;;;11.95;;
22144;SDS011;11238;48.730;11.566;2024-02-26T08:24:55;21.90;;;11.30;;
22144;SDS011;11238;48.730;11.566;2024-02-26T08:27:21;18.27;;;10.80;;
22144;SDS011;11238;48.730;11.566;2024-02-26T08:29:48;19.55;;;10.63;;
22144;SDS011;11238;48.730;11.566;2024-02-26T08:32:13;19.67;;;10.48;;
22144;SDS011;11238;48.730;11.566;2024-02-26T08:34:39;17.42;;;9.75;;
22144;SDS011;11238;48.730;11.566;2024-02-26T08:37:05;20.60;;;10.70;;
22144;SDS011;11238;48.730;11.566;2024-02-26T08:39:32;17.83;;;9.88;;
22144;SDS011;11238;48.730;11.566;2024-02-26T08:41:57;22.00;;;11.45;;
22144;SDS011;11238;48.730;11.566;2024-02-26T08:44:23;23.25;;;11.77;;
22144;SDS011;11238;48.730;11.566;2024-02-26T09:13:44;18.63;;;10.38;;
22144;SDS011;11238;48.730;11.566;2024-02-26T09:21:35;19.80;;;10.50;;
22144;SDS011;11238;48.730;11.566;2024-02-26T09:32:27;19.65;;;9.73;;
22144;SDS011;11238;48.730;11.566;2024-02-26T09:39:08;19.40;;;9.18;;
22144;SDS011;11238;48.730;11.566;2024-02-26T09:49:21;18.10;;;9.70;;
22144;SDS011;11238;48.730;11.566;2024-02-26T10:00:03;20.13;;;9.77;;
22144;SDS011;11238;48.730;11.566;2024-02-26T10:07:17;17.42;;;8.75;;
22144;SDS011;11238;48.730;11.566;2024-02-26T10:14:05;14.73;;;8.82;;
22144;SDS011;11238;48.730;11.566;2024-02-26T10:17:17;19.55;;;9.23;;
22144;SDS011;11238;48.730;11.566;2024-02-26T10:35:33;16.95;;;8.48;;
22144;SDS011;11238;48.730;11.566;2024-02-26T10:42:35;16.90;;;8.18;;
22144;SDS011;11238;48.730;11.566;2024-02-26T10:46:26;13.95;;;7.20;;
22144;SDS011;11238;48.730;11.566;2024-02-26T10:49:47;12.75;;;7.30;;
22144;SDS011;11238;48.730;11.566;2024-02-26T10:56:45;11.60;;;6.97;;
22144;SDS011;11238;48.730;11.566;2024-02-26T11:00:22;11.65;;;7.38;;
22144;SDS011;11238;48.730;11.566;2024-02-26T11:10:52;12.98;;;6.60;;
22144;SDS011;11238;48.730;11.566;2024-02-26T11:16:54;9.40;;;6.20;;
22144;SDS011;11238;48.730;11.566;2024-02-26T11:19:22;10.73;;;6.47;;
22144;SDS011;11238;48.730;11.566;2024-02-26T11:21:51;10.85;;;6.20;;
22144;SDS011;11238;48.730;11.566;2024-02-26T11:24:17;9.27;;;6.00;;
22144;SDS011;11238;48.730;11.566;2024-02-26T11:26:50;8.63;;;5.10;;
22144;SDS011;11238;48.730;11.566;2024-02-26T11:29:25;10.90;;;5.88;;
22144;SDS011;11238;48.730;11.566;2024-02-26T11:31:59;7.97;;;4.93;;
22144;SDS011;11238;48.730;11.566;2024-02-26T11:34:25;11.82;;;5.68;;
22144;SDS011;11238;48.730;11.566;2024-02-26T11:36:51;11.05;;;5.53;;
22144;SDS011;11238;48.730;11.566;2024-02-26T11:39:18;9.80;;;5.25;;
22144;SDS011;11238;48.730;11.566;2024-02-26T11:41:44;10.75;;;5.28;;
22144;SDS011;11238;48.730;11.566;2024-02-26T11:44:11;6.97;;;4.80;;
22144;SDS011;11238;48.730;11.566;2024-02-26T11:46:41;10.68;;;5.32;;
22144;SDS011;11238;48.730;11.566;2024-02-26T11:51:53;7.90;;;4.80;;
22144;SDS011;11238;48.730;11.566;2024-02-26T11:59:53;6.82;;;4.07;;
22144;SDS011;11238;48.730;11.566;2024-02-26T12:05:20;6.88;;;3.92;;
22144;SDS011;11238;48.730;11.566;2024-02-26T12:07:55;6.70;;;4.22;;
22144;SDS011;11238;48.730;11.566;2024-02-26T12:10:33;6.40;;;3.75;;
22144;SDS011;11238;48.730;11.566;2024-02-26T12:13:11;5.30;;;3.90;;
22144;SDS011;11238;48.730;11.566;2024-02-26T12:15:45;7.03;;;4.15;;
22144;SDS011;11238;48.730;11.566;2024-02-26T12:18:20;7.10;;;4.43;;
22144;SDS011;11238;48.730;11.566;2024-02-26T12:20:57;7.32;;;3.85;;
22144;SDS011;11238;48.730;11.566;2024-02-26T12:23:29;6.55;;;4.43;;
22144;SDS011;11238;48.730;11.566;2024-02-26T12:28:51;7.15;;;4.43;;
22144;SDS011;11238;48.730;11.566;2024-02-26T12:31:17;5.85;;;3.75;;
22144;SDS011;11238;48.730;11.566;2024-02-26T12:33:46;4.88;;;3.90;;
22144;SDS011;11238;48.730;11.566;2024-02-26T12:36:12;6.28;;;3.72;;
22144;SDS011;11238;48.730;11.566;2024-02-26T12:38:39;6.40;;;3.58;;
22144;SDS011;11238;48.730;11.566;2024-02-26T12:41:08;4.88;;;3.30;;
22144;SDS011;11238;48.730;11.566;2024-02-26T12:43:55;5.70;;;3.53;;
22144;SDS011;11238;48.730;11.566;2024-02-26T12:46:35;5.43;;;3.60;;
22144;SDS011;11238;48.730;11.566;2024-02-26T12:49:04;4.90;;;3.50;;
22144;SDS011;11238;48.730;11.566;2024-02-26T12:51:33;4.75;;;3.05;;
22144;SDS011;11238;48.730;11.566;2024-02-26T12:53:59;4.28;;;3.15;;
22144;SDS011;11238;48.730;11.566;2024-02-26T12:56:25;5.00;;;2.97;;
22144;SDS011;11238;48.730;11.566;2024-02-26T12:58:52;5.05;;;3.00;;
22144;SDS011;11238;48.730;11.566;2024-02-26T13:01:19;4.38;;;3.00;;
22144;SDS011;11238;48.730;11.566;2024-02-26T13:03:48;6.15;;;3.30;;
22144;SDS011;11238;48.730;11.566;2024-02-26T13:06:15;4.57;;;3.50;;
22144;SDS011;11238;48.730;11.566;2024-02-26T13:08:42;5.35;;;2.95;;
22144;SDS011;11238;48.730;11.566;2024-02-26T13:11:08;5.10;;;3.38;;
22144;SDS011;11238;48.730;11.566;2024-02-26T13:13:34;5.00;;;3.50;;
22144;SDS011;11238;48.730;11.566;2024-02-26T13:16:04;5.05;;;3.20;;
22144;SDS011;11238;48.730;11.566;2024-02-26T13:18:33;5.85;;;3.20;;
22144;SDS011;11238;48.730;11.566;2024-02-26T13:21:09;5.03;;;3.00;;
22144;SDS011;11238;48.730;11.566;2024-02-26T13:23:39;4.30;;;2.60;;
22144;SDS011;11238;48.730;11.566;2024-02-26T13:26:05;3.38;;;2.60;;
22144;SDS011;11238;48.730;11.566;2024-02-26T13:28:33;3.10;;;2.58;;
22144;SDS011;11238;48.730;11.566;2024-02-26T13:31:00;3.58;;;2.47;;
22144;SDS011;11238;48.730;11.566;2024-02-26T13:33:27;7.65;;;2.80;;
22144;SDS011;11238;48.730;11.566;2024-02-26T13:35:55;5.00;;;2.97;;
22144;SDS011;11238;48.730;11.566;2024-02-26T13:38:22;4.22;;;2.75;;
22144;SDS011;11238;48.730;11.566;2024-02-26T13:40:49;4.18;;;2.63;;
22144;SDS011;11238;48.730;11.566;2024-02-26T13:43:15;3.70;;;2.72;;
22144;SDS011;11238;48.730;11.566;2024-02-26T13:45:42;3.60;;;2.63;;
22144;SDS011;11238;48.730;11.566;2024-02-26T13:48:09;6.75;;;2.53;;
22144;SDS011;11238;48.730;11.566;2024-02-26T13:50:40;4.30;;;2.58;;
22144;SDS011;11238;48.730;11.566;2024-02-26T13:53:06;4.03;;;2.30;;
22144;SDS011;11238;48.730;11.566;2024-02-26T13:55:32;4.45;;;2.45;;
22144;SDS011;11238;48.730;11.566;2024-02-26T13:57:58;5.35;;;2.28;;
22144;SDS011;11238;48.730;11.566;2024-02-26T14:00:28;2.75;;;2.33;;
22144;SDS011;11238;48.730;11.566;2024-02-26T14:02:57;2.75;;;2.15;;
22144;SDS011;11238;48.730;11.566;2024-02-26T14:05:24;3.38;;;2.25;;
22144;SDS011;11238;48.730;11.566;2024-02-26T14:07:49;3.70;;;2.10;;
22144;SDS011;11238;48.730;11.566;2024-02-26T14:10:15;3.13;;;2.10;;
22144;SDS011;11238;48.730;11.566;2024-02-26T14:12:41;3.13;;;2.20;;
22144;SDS011;11238;48.730;11.566;2024-02-26T14:15:07;2.92;;;2.03;;
22144;SDS011;11238;48.730;11.566;2024-02-26T14:17:35;3.25;;;2.13;;
22144;SDS011;11238;48.730;11.566;2024-02-26T14:20:01;3.17;;;1.88;;
22144;SDS011;11238;48.730;11.566;2024-02-26T14:22:28;4.50;;;2.38;;
22144;SDS011;11238;48.730;11.566;2024-02-26T14:24:56;2.67;;;1.98;;
22144;SDS011;11238;48.730;11.566;2024-02-26T14:27:22;2.67;;;1.90;;
22144;SDS011;11238;48.730;11.566;2024-02-26T14:29:48;2.38;;;1.90;;
22144;SDS011;11238;48.730;11.566;2024-02-26T14:32:14;4.82;;;2.08;;
22144;SDS011;11238;48.730;11.566;2024-02-26T14:34:40;3.92;;;1.90;;
22144;SDS011;11238;48.730;11.566;2024-02-26T14:37:06;3.35;;;1.83;;
22144;SDS011;11238;48.730;11.566;2024-02-26T14:39:32;3.08;;;2.10;;
22144;SDS011;11238;48.730;11.566;2024-02-26T14:41:58;2.22;;;1.80;;
22144;SDS011;11238;48.730;11.566;2024-02-26T14:44:25;3.03;;;2.03;;
22144;SDS011;11238;48.730;11.566;2024-02-26T14:46:51;2.75;;;1.70;;
22144;SDS011;11238;48.730;11.566;2024-02-26T14:49:17;2.95;;;2.08;;
22144;SDS011;11238;48.730;11.566;2024-02-26T14:51:43;3.85;;;2.00;;
22144;SDS011;11238;48.730;11.566;2024-02-26T14:54:12;4.05;;;3.20;;
22144;SDS011;11238;48.730;11.566;2024-02-26T14:56:38;30.15;;;11.13;;
22144;SDS011;11238;48.730;11.566;2024-02-26T14:59:04;32.47;;;10.68;;
22144;SDS011;11238;48.730;11.566;2024-02-26T15:01:29;38.58;;;12.30;;
22144;SDS011;11238;48.730;11.566;2024-02-26T15:03:55;39.95;;;14.70;;
22144;SDS011;11238;48.730;11.566;2024-02-26T15:06:22;38.00;;;14.77;;
22144;SDS011;11238;48.730;11.566;2024-02-26T15:08:48;68.60;;;24.13;;
22144;SDS011;11238;48.730;11.566;2024-02-26T15:11:14;35.38;;;16.65;;
22144;SDS011;11238;48.730;11.566;2024-02-26T15:13:40;48.35;;;28.70;;
22144;SDS011;11238;48.730;11.566;2024-02-26T15:16:06;18.73;;;13.63;;
22144;SDS011;11238;48.730;11.566;2024-02-26T15:18:32;13.40;;;8.70;;
22144;SDS011;11238;48.730;11.566;2024-02-26T15:20:58;11.82;;;7.57;;
22144;SDS011;11238;48.730;11.566;2024-02-26T15:23:24;8.00;;;5.25;;
22144;SDS011;11238;48.730;11.566;2024-02-26T15:25:49;6.68;;;5.10;;
22144;SDS011;11238;48.730;11.566;2024-02-26T15:28:15;6.72;;;4.60;;
22144;SDS011;11238;48.730;11.566;2024-02-26T15:30:41;6.95;;;5.00;;
22144;SDS011;11238;48.730;11.566;2024-02-26T15:33:07;8.93;;;4.55;;
22144;SDS011;11238;48.730;11.566;2024-02-26T15:35:34;6.68;;;4.88;;
22144;SDS011;11238;48.730;11.566;2024-02-26T15:37:59;7.13;;;4.60;;
22144;SDS011;11238;48.730;11.566;2024-02-26T15:40:26;5.25;;;3.67;;
22144;SDS011;11238;48.730;11.566;2024-02-26T15:42:52;5.63;;;3.20;;
22144;SDS011;11238;48.730;11.566;2024-02-26T15:45:18;3.22;;;2.47;;
22144;SDS011;11238;48.730;11.566;2024-02-26T15:47:44;3.90;;;2.60;;
22144;SDS011;11238;48.730;11.566;2024-02-26T15:50:10;3.70;;;2.90;;
22144;SDS011;11238;48.730;11.566;2024-02-26T15:52:37;7.45;;;3.92;;
22144;SDS011;11238;48.730;11.566;2024-02-26T15:55:04;6.18;;;3.67;;
22144;SDS011;11238;48.730;11.566;2024-02-26T15:57:30;7.38;;;4.00;;
22144;SDS011;11238;48.730;11.566;2024-02-26T15:59:56;6.40;;;3.75;;
22144;SDS011;11238;48.730;11.566;2024-02-26T16:02:26;5.82;;;3.35;;
22144;SDS011;11238;48.730;11.566;2024-02-26T16:04:52;6.10;;;3.92;;
22144;SDS011;11238;48.730;11.566;2024-02-26T16:07:23;6.63;;;4.18;;
22144;SDS011;11238;48.730;11.566;2024-02-26T16:09:57;7.10;;;4.28;;
22144;SDS011;11238;48.730;11.566;2024-02-26T16:12:27;10.98;;;4.70;;
22144;SDS011;11238;48.730;11.566;2024-02-26T16:15:08;7.18;;;4.45;;
22144;SDS011;11238;48.730;11.566;2024-02-26T16:17:36;7.88;;;4.05;;
22144;SDS011;11238;48.730;11.566;2024-02-26T16:20:12;6.15;;;3.85;;
22144;SDS011;11238;48.730;11.566;2024-02-26T16:22:40;5.55;;;2.90;;